Time;durP1;ratioP1;P1;durP2;ratioP2;P2;SDS_P1;SDS_P2;PMS_P1;PMS_P2;Temp;Humidity;BMP_temperature;BMP_pressure;BME280_temperature;BME280_humidity;BME280_pressure;Samples;Min_cycle;Max_cycle;Signal;HPM_P1;HPM_P2
2022/01/16 00:00:18;;;;;;;58.30;38.13;;;-1.30;99.90;;;;;;5061683;28;20467;-76
2022/01/16 00:05:31;;;;;;;48.57;33.80;;;-1.40;99.90;;;;;;5053492;28;20901;-76
2022/01/16 00:07:59;;;;;;;53.23;35.13;;;-1.30;99.90;;;;;;5055654;28;20449;-77
2022/01/16 00:10:27;;;;;;;53.87;35.87;;;-1.30;99.90;;;;;;5083124;28;20468;-76
2022/01/16 00:12:58;;;;;;;54.10;35.57;;;-1.30;99.90;;;;;;5057280;28;20812;-76
2022/01/16 00:15:25;;;;;;;48.37;34.20;;;-1.40;99.90;;;;;;5082708;28;20489;-77
2022/01/16 00:17:55;;;;;;;48.93;34.73;;;-1.40;99.90;;;;;;5061049;28;20502;-76
2022/01/16 00:20:24;;;;;;;47.40;34.33;;;-1.40;99.90;;;;;;5064333;28;20477;-76
2022/01/16 00:22:53;;;;;;;43.93;33.33;;;-1.50;99.90;;;;;;5056766;28;20448;-75
2022/01/16 00:25:20;;;;;;;70.33;36.73;;;-1.50;99.90;;;;;;5075241;28;20472;-75
2022/01/16 00:27:47;;;;;;;60.50;37.10;;;-1.50;99.90;;;;;;5064760;28;20877;-76
2022/01/16 00:30:14;;;;;;;43.97;33.63;;;-1.60;99.90;;;;;;5075042;28;20881;-76
2022/01/16 00:32:41;;;;;;;51.00;34.60;;;-1.60;99.90;;;;;;5082909;28;20776;-76
2022/01/16 00:35:09;;;;;;;47.70;34.27;;;-1.70;99.90;;;;;;5078070;28;20437;-76
2022/01/16 00:37:36;;;;;;;49.20;34.23;;;-1.70;99.90;;;;;;5061153;28;20437;-76
2022/01/16 00:40:05;;;;;;;49.93;33.63;;;-1.70;99.90;;;;;;5056015;28;20506;-77
2022/01/16 00:42:32;;;;;;;46.37;33.67;;;-1.70;99.90;;;;;;5079413;28;20421;-76
2022/01/16 00:44:58;;;;;;;46.70;32.90;;;-1.70;99.90;;;;;;5060799;28;20836;-77
2022/01/16 00:47:25;;;;;;;39.70;31.67;;;-1.70;99.90;;;;;;5079434;28;20436;-76
2022/01/16 00:49:52;;;;;;;62.33;34.80;;;-1.80;99.90;;;;;;5071783;28;20807;-77
2022/01/16 00:52:20;;;;;;;44.03;33.40;;;-1.80;99.90;;;;;;5081463;28;20433;-77
2022/01/16 00:54:47;;;;;;;62.83;37.13;;;-1.90;99.90;;;;;;5064436;28;20444;-76
2022/01/16 00:57:15;;;;;;;47.83;35.43;;;-1.90;99.90;;;;;;5076854;28;20425;-76
2022/01/16 00:59:42;;;;;;;42.77;32.53;;;-2.00;99.90;;;;;;5079109;28;20843;-77
2022/01/16 01:02:08;;;;;;;39.53;32.63;;;-2.00;99.90;;;;;;5079164;28;20500;-76
2022/01/16 01:04:35;;;;;;;43.90;33.23;;;-2.00;99.90;;;;;;5079956;28;20444;-76
2022/01/16 01:07:02;;;;;;;42.57;31.67;;;-2.00;99.90;;;;;;5076342;28;20486;-77
2022/01/16 01:09:29;;;;;;;46.90;33.20;;;-2.00;99.90;;;;;;5086233;28;20802;-75
2022/01/16 01:11:56;;;;;;;42.63;33.63;;;-2.10;99.90;;;;;;5079709;28;20449;-75
2022/01/16 01:14:27;;;;;;;40.67;31.27;;;-2.10;99.90;;;;;;5082731;28;20435;-75
2022/01/16 01:16:57;;;;;;;38.07;31.30;;;-2.20;99.90;;;;;;5078925;28;20775;-77
2022/01/16 01:19:29;;;;;;;36.43;31.53;;;-2.20;99.90;;;;;;5085631;28;20519;-76
2022/01/16 01:21:56;;;;;;;38.97;31.30;;;-2.30;99.90;;;;;;5081803;28;20463;-76
2022/01/16 01:24:23;;;;;;;38.40;31.20;;;-2.40;99.90;;;;;;5083057;28;20448;-77
2022/01/16 01:26:56;;;;;;;38.63;31.27;;;-2.40;99.90;;;;;;5077494;28;20888;-76
2022/01/16 01:29:28;;;;;;;40.73;33.23;;;-2.40;99.90;;;;;;5085203;28;20443;-75
2022/01/16 01:31:55;;;;;;;39.53;31.57;;;-2.40;99.90;;;;;;5062304;28;21033;-76
2022/01/16 01:34:22;;;;;;;42.83;33.83;;;-2.40;99.90;;;;;;5083820;28;20437;-76
2022/01/16 01:36:49;;;;;;;40.00;32.00;;;-2.40;99.90;;;;;;5063983;28;20440;-76
2022/01/16 01:39:17;;;;;;;42.30;31.80;;;-2.40;99.90;;;;;;5076365;28;20466;-77
2022/01/16 01:41:44;;;;;;;40.13;31.83;;;-2.50;99.90;;;;;;5085534;28;20943;-76
2022/01/16 01:52:26;;;;;;;43.07;32.60;;;-2.60;99.90;;;;;;5066115;28;20436;-76
2022/01/16 01:54:53;;;;;;;43.23;32.13;;;-2.60;99.90;;;;;;5063984;28;20827;-77
2022/01/16 01:57:20;;;;;;;41.80;32.10;;;-2.60;99.90;;;;;;5077001;28;20443;-76
2022/01/16 01:59:47;;;;;;;42.50;31.73;;;-2.60;99.90;;;;;;5067275;28;20805;-76
2022/01/16 02:02:15;;;;;;;40.07;30.73;;;-2.60;99.90;;;;;;5076841;28;20803;-77
2022/01/16 02:04:42;;;;;;;36.80;30.97;;;-2.60;99.90;;;;;;5085038;28;20427;-76
2022/01/16 02:07:09;;;;;;;43.37;32.33;;;-2.70;99.90;;;;;;5079422;28;20436;-76
2022/01/16 02:09:38;;;;;;;41.83;32.10;;;-2.70;99.90;;;;;;5081574;28;20437;-75
2022/01/16 02:12:06;;;;;;;44.80;33.73;;;-2.70;99.90;;;;;;5081700;28;20498;-77
2022/01/16 02:14:46;;;;;;;51.63;37.67;;;-2.70;99.90;;;;;;5079068;28;20440;-76
2022/01/16 02:28:22;;;;;;;52.37;34.80;;;-2.80;99.90;;;;;;5083487;28;20439;-77
2022/01/16 02:36:27;;;;;;;44.23;31.23;;;-2.80;99.90;;;;;;5082610;28;20448;-76
2022/01/16 02:38:59;;;;;;;37.67;31.37;;;-2.80;99.90;;;;;;5076817;28;20436;-76
2022/01/16 02:41:26;;;;;;;39.17;31.07;;;-2.80;99.90;;;;;;5068302;28;20469;-75
2022/01/16 02:43:55;;;;;;;39.77;32.10;;;-2.90;99.90;;;;;;5080930;28;20444;-76
2022/01/16 02:46:39;;;;;;;41.73;31.37;;;-2.90;99.90;;;;;;5063622;28;20478;-76
2022/01/16 02:49:21;;;;;;;46.60;33.60;;;-2.90;99.90;;;;;;5057916;28;20505;-76
2022/01/16 02:51:49;;;;;;;45.13;31.40;;;-2.90;99.90;;;;;;5054684;28;20472;-76
2022/01/16 02:54:18;;;;;;;47.60;34.90;;;-2.90;99.90;;;;;;5060834;28;20972;-76
2022/01/16 02:56:45;;;;;;;47.50;33.07;;;-2.90;99.90;;;;;;5084170;28;20842;-76
2022/01/16 02:59:12;;;;;;;49.93;32.83;;;-2.80;99.90;;;;;;5060003;28;20476;-76
2022/01/16 03:01:40;;;;;;;44.07;32.30;;;-2.80;99.90;;;;;;5080389;28;20855;-76
2022/01/16 03:04:07;;;;;;;47.60;32.13;;;-2.80;99.90;;;;;;5062582;28;20436;-75
2022/01/16 03:06:34;;;;;;;38.00;29.70;;;-2.80;99.90;;;;;;5080152;28;20472;-76
2022/01/16 03:09:01;;;;;;;41.80;32.90;;;-2.80;99.90;;;;;;5073984;28;20455;-76
2022/01/16 03:11:35;;;;;;;40.47;31.70;;;-2.80;99.90;;;;;;5059201;28;20481;-76
2022/01/16 03:14:02;;;;;;;42.77;30.00;;;-2.70;99.90;;;;;;5058332;28;20440;-77
2022/01/16 03:16:29;;;;;;;37.13;29.63;;;-2.80;99.90;;;;;;5070953;28;20445;-76
2022/01/16 03:21:54;;;;;;;43.03;31.93;;;-2.80;99.90;;;;;;5073961;28;20453;-76
2022/01/16 03:24:22;;;;;;;44.03;30.87;;;-2.80;99.90;;;;;;5062161;28;20437;-76
2022/01/16 03:26:50;;;;;;;47.10;33.40;;;-2.70;99.90;;;;;;5079976;28;20565;-77
2022/01/16 03:29:17;;;;;;;37.90;30.20;;;-2.70;99.90;;;;;;5071937;28;20429;-76
2022/01/16 03:31:43;;;;;;;41.63;30.50;;;-2.70;99.90;;;;;;5077244;28;20467;-75
2022/01/16 03:34:10;;;;;;;37.23;30.43;;;-2.70;99.90;;;;;;5074266;28;20437;-76
2022/01/16 03:36:37;;;;;;;38.70;30.50;;;-2.80;99.90;;;;;;5071825;28;20787;-76
2022/01/16 03:39:05;;;;;;;39.30;31.67;;;-2.80;99.90;;;;;;5071870;28;20478;-77
2022/01/16 03:41:34;;;;;;;40.83;30.73;;;-2.90;99.90;;;;;;5057780;28;20479;-75
2022/01/16 03:44:02;;;;;;;38.27;29.83;;;-2.90;99.90;;;;;;5061941;28;20539;-76
2022/01/16 03:46:34;;;;;;;36.67;30.00;;;-3.00;99.90;;;;;;5071888;28;20461;-75
2022/01/16 03:49:06;;;;;;;37.00;30.07;;;-3.00;99.90;;;;;;5076211;28;20436;-76
2022/01/16 03:51:34;;;;;;;34.90;28.97;;;-3.10;99.90;;;;;;5061837;28;20464;-76
2022/01/16 03:54:01;;;;;;;34.57;29.33;;;-3.10;99.90;;;;;;5059800;28;20468;-77
2022/01/16 03:56:28;;;;;;;36.73;30.33;;;-3.20;99.90;;;;;;5064812;28;20916;-76
2022/01/16 03:58:55;;;;;;;40.57;31.47;;;-3.20;99.90;;;;;;5048225;28;20834;-75
2022/01/16 04:01:24;;;;;;;37.07;30.50;;;-3.20;99.90;;;;;;5085494;28;20463;-75
2022/01/16 04:03:51;;;;;;;43.07;31.03;;;-3.20;99.90;;;;;;5072029;28;20465;-76
2022/01/16 04:06:18;;;;;;;40.90;31.50;;;-3.20;99.90;;;;;;5077190;28;20504;-75
2022/01/16 04:08:45;;;;;;;37.17;30.20;;;-3.20;99.90;;;;;;5069626;28;20456;-75
2022/01/16 04:11:12;;;;;;;38.47;30.10;;;-3.20;99.90;;;;;;5065215;28;20468;-75
2022/01/16 04:13:47;;;;;;;31.47;27.87;;;-3.20;99.90;;;;;;5077236;28;20856;-76
2022/01/16 04:16:14;;;;;;;32.67;28.07;;;-3.20;99.90;;;;;;5074262;28;20440;-76
2022/01/16 04:18:43;;;;;;;31.80;26.93;;;-3.20;99.90;;;;;;5082646;28;20920;-74
2022/01/16 04:21:09;;;;;;;30.03;26.80;;;-3.20;99.90;;;;;;5074108;28;20833;-76
2022/01/16 04:23:36;;;;;;;32.13;28.07;;;-3.30;99.90;;;;;;5061375;28;20449;-75
2022/01/16 04:26:03;;;;;;;31.43;28.03;;;-3.30;99.90;;;;;;5079189;28;20535;-77
2022/01/16 04:28:30;;;;;;;36.43;30.17;;;-3.40;99.90;;;;;;5079588;28;20440;-78
2022/01/16 04:30:57;;;;;;;31.97;28.47;;;-3.40;99.90;;;;;;5063298;28;20517;-75
2022/01/16 04:33:24;;;;;;;32.13;28.10;;;-3.50;99.90;;;;;;5063826;28;20485;-77
2022/01/16 04:35:52;;;;;;;32.43;28.03;;;-3.60;99.90;;;;;;5049936;28;20449;-79
2022/01/16 04:38:19;;;;;;;32.80;27.77;;;-3.60;99.90;;;;;;5057899;28;20908;-77
2022/01/16 04:43:47;;;;;;;34.97;29.67;;;-3.60;99.90;;;;;;5057278;28;20488;-78
2022/01/16 04:43:47;;;;;;;32.80;28.03;;;-3.70;99.90;;;;;;5083378;28;20842;-77
2022/01/16 04:46:14;;;;;;;31.57;27.00;;;-3.70;99.90;;;;;;5065311;28;20474;-78
2022/01/16 04:48:41;;;;;;;33.97;29.50;;;-3.70;99.90;;;;;;5056423;28;20441;-78
2022/01/16 04:51:10;;;;;;;32.10;26.97;;;-3.70;99.90;;;;;;5081984;28;20464;-77
2022/01/16 04:53:37;;;;;;;34.30;27.10;;;-3.80;99.90;;;;;;5076170;28;20921;-77
2022/01/16 04:56:05;;;;;;;32.13;28.63;;;-3.80;99.90;;;;;;5078951;28;20489;-77
2022/01/16 04:58:32;;;;;;;34.43;27.37;;;-3.80;99.90;;;;;;5069299;28;20793;-77
2022/01/16 05:01:01;;;;;;;36.43;30.93;;;-3.80;99.90;;;;;;5056056;28;20478;-78
2022/01/16 05:03:29;;;;;;;37.07;28.03;;;-3.80;99.90;;;;;;5048083;28;20823;-78
2022/01/16 05:05:57;;;;;;;36.83;27.73;;;-3.80;99.90;;;;;;5055780;28;20471;-77
2022/01/16 05:08:26;;;;;;;35.37;26.27;;;-3.80;99.90;;;;;;5085429;28;20850;-77
2022/01/16 05:10:55;;;;;;;31.20;26.43;;;-3.90;99.90;;;;;;5072724;28;20468;-79
2022/01/16 05:16:34;;;;;;;31.43;26.40;;;-3.90;99.90;;;;;;5056130;28;20448;-79
2022/01/16 05:16:37;;;;;;;33.60;25.63;;;-3.90;99.90;;;;;;5076049;28;20537;-78
2022/01/16 05:19:06;;;;;;;31.50;26.13;;;-3.90;99.90;;;;;;5060799;28;20436;-79
2022/01/16 05:21:33;;;;;;;30.60;26.07;;;-4.00;99.90;;;;;;5056532;28;20467;-79
2022/01/16 05:24:08;;;;;;;32.63;26.93;;;-3.90;99.90;;;;;;5065388;28;20449;-80
2022/01/16 05:26:35;;;;;;;35.87;26.60;;;-3.90;99.90;;;;;;5054308;28;20480;-76
2022/01/16 05:29:04;;;;;;;31.00;25.53;;;-3.90;99.90;;;;;;5080920;28;20526;-78
2022/01/16 05:31:33;;;;;;;28.97;24.50;;;-3.90;99.90;;;;;;5090963;22;20488;-81
2022/01/16 05:34:00;;;;;;;32.20;26.40;;;-3.90;99.90;;;;;;5057551;28;20456;-78
2022/01/16 05:36:27;;;;;;;31.60;25.03;;;-4.00;99.90;;;;;;5079527;28;20451;-78
2022/01/16 05:38:54;;;;;;;33.50;26.07;;;-4.00;99.90;;;;;;5061606;28;20455;-79
2022/01/16 05:41:22;;;;;;;31.40;26.07;;;-4.10;99.90;;;;;;5049008;28;20470;-81
2022/01/16 05:43:49;;;;;;;34.93;26.23;;;-4.00;99.90;;;;;;5077150;28;20495;-79
2022/01/16 05:46:16;;;;;;;34.43;27.93;;;-4.10;99.90;;;;;;5074892;28;20567;-79
2022/01/16 05:48:43;;;;;;;34.70;27.47;;;-4.10;99.90;;;;;;5076463;28;20975;-79
2022/01/16 05:51:11;;;;;;;33.43;25.27;;;-4.10;99.90;;;;;;5062778;28;20475;-79
2022/01/16 05:53:38;;;;;;;32.67;24.90;;;-4.10;99.90;;;;;;5056867;28;20480;-80
2022/01/16 05:56:05;;;;;;;27.67;24.67;;;-4.10;99.90;;;;;;5053811;28;20481;-79
2022/01/16 05:58:33;;;;;;;27.87;24.43;;;-4.10;99.90;;;;;;5056829;28;20440;-80
2022/01/16 06:01:00;;;;;;;26.30;23.53;;;-4.10;99.90;;;;;;5058059;28;20461;-79
2022/01/16 06:03:27;;;;;;;27.17;24.27;;;-4.00;99.90;;;;;;5071844;28;20425;-78
2022/01/16 06:05:54;;;;;;;24.77;22.13;;;-4.00;99.90;;;;;;5074879;28;20433;-79
2022/01/16 06:08:21;;;;;;;27.23;21.67;;;-4.00;99.90;;;;;;5079483;28;20440;-80
2022/01/16 06:10:47;;;;;;;23.97;21.50;;;-3.90;99.90;;;;;;5072799;28;20487;-79
2022/01/16 06:13:14;;;;;;;26.50;23.63;;;-3.90;99.90;;;;;;5071917;28;20450;-80
2022/01/16 06:15:43;;;;;;;28.57;24.77;;;-3.90;99.90;;;;;;5066652;28;20444;-78
2022/01/16 06:18:10;;;;;;;29.73;24.83;;;-3.90;99.90;;;;;;5077747;28;20437;-79
2022/01/16 06:20:37;;;;;;;30.33;24.17;;;-3.80;99.90;;;;;;5060857;28;20957;-79
2022/01/16 06:23:03;;;;;;;28.30;23.40;;;-3.80;99.90;;;;;;5049998;28;20449;-79
2022/01/16 06:25:31;;;;;;;28.00;23.37;;;-3.90;99.90;;;;;;5076223;28;20448;-79
2022/01/16 06:27:57;;;;;;;25.97;23.30;;;-4.00;99.90;;;;;;5079279;28;20479;-78
2022/01/16 06:30:24;;;;;;;28.00;23.40;;;-4.00;99.90;;;;;;5056255;28;20446;-78
2022/01/16 06:32:52;;;;;;;26.10;22.87;;;-4.00;99.90;;;;;;5067261;28;20476;-79
2022/01/16 06:35:19;;;;;;;31.00;25.27;;;-4.00;99.90;;;;;;5053523;28;20444;-79
2022/01/16 06:37:47;;;;;;;28.80;25.40;;;-3.90;99.90;;;;;;5056164;28;20816;-79
2022/01/16 06:40:15;;;;;;;27.77;24.83;;;-3.90;99.90;;;;;;5073309;28;20433;-78
2022/01/16 06:42:42;;;;;;;31.33;24.63;;;-3.90;99.90;;;;;;5057777;28;20591;-79
2022/01/16 06:45:11;;;;;;;28.30;24.67;;;-3.90;99.90;;;;;;5065951;28;20475;-79
2022/01/16 06:47:38;;;;;;;30.50;24.90;;;-3.90;99.90;;;;;;5069118;28;20492;-78
2022/01/16 06:50:08;;;;;;;31.00;26.63;;;-3.90;99.90;;;;;;5072453;28;20443;-78
2022/01/16 06:52:35;;;;;;;28.60;24.77;;;-3.90;99.90;;;;;;5064775;28;20472;-77
2022/01/16 06:55:03;;;;;;;32.40;25.57;;;-3.90;99.90;;;;;;5070262;28;20444;-79
2022/01/16 06:57:29;;;;;;;31.83;25.57;;;-3.90;99.90;;;;;;5054996;28;20990;-79
2022/01/16 06:59:56;;;;;;;29.93;25.33;;;-3.80;99.90;;;;;;5053761;28;20452;-78
2022/01/16 07:02:24;;;;;;;33.47;25.93;;;-3.90;99.90;;;;;;5074335;28;20504;-78
2022/01/16 07:04:51;;;;;;;34.67;26.33;;;-3.70;99.90;;;;;;5075406;28;20444;-79
2022/01/16 07:07:19;;;;;;;30.53;24.30;;;-3.70;99.90;;;;;;5058501;28;20484;-82
2022/01/16 07:09:46;;;;;;;27.70;24.73;;;-3.60;99.90;;;;;;5058659;28;20480;-81
2022/01/16 07:12:13;;;;;;;30.20;25.67;;;-3.70;99.90;;;;;;5056164;28;20485;-82
2022/01/16 07:14:40;;;;;;;31.93;26.20;;;-3.70;99.90;;;;;;5053462;28;20455;-81
2022/01/16 07:17:07;;;;;;;32.40;25.60;;;-3.70;99.90;;;;;;5057474;28;20471;-80
2022/01/16 07:19:34;;;;;;;28.97;24.20;;;-3.70;99.90;;;;;;5057324;28;20455;-80
2022/01/16 07:22:01;;;;;;;29.20;24.97;;;-3.70;99.90;;;;;;5074525;28;20456;-82
2022/01/16 07:24:29;;;;;;;29.73;24.23;;;-3.70;99.90;;;;;;5072205;28;20448;-84
2022/01/16 07:26:58;;;;;;;26.93;23.60;;;-3.60;99.90;;;;;;5058921;28;20521;-79
2022/01/16 07:29:27;;;;;;;32.03;25.50;;;-3.60;99.90;;;;;;5060490;28;20460;-78
2022/01/16 07:31:53;;;;;;;30.70;24.20;;;-3.60;99.90;;;;;;5060249;28;20507;-79
2022/01/16 07:34:20;;;;;;;29.40;24.53;;;-3.60;99.90;;;;;;5060315;28;20450;-77
2022/01/16 07:36:47;;;;;;;29.50;24.87;;;-3.60;99.90;;;;;;5078836;28;20428;-79
2022/01/16 07:39:14;;;;;;;29.80;25.27;;;-3.60;99.90;;;;;;5076594;28;20437;-79
2022/01/16 07:41:42;;;;;;;29.87;25.23;;;-3.60;99.90;;;;;;5053404;28;20478;-79
2022/01/16 07:44:09;;;;;;;31.23;25.60;;;-3.50;99.90;;;;;;5051468;28;20452;-78
2022/01/16 07:46:36;;;;;;;30.13;24.93;;;-3.40;99.90;;;;;;5075273;28;20435;-75
2022/01/16 07:49:03;;;;;;;32.83;24.17;;;-3.30;99.90;;;;;;5073990;28;20455;-77
2022/01/16 07:51:31;;;;;;;25.50;22.00;;;-3.00;99.90;;;;;;5072222;28;20871;-79
2022/01/16 07:53:58;;;;;;;22.80;20.40;;;-2.80;99.90;;;;;;5074135;28;20845;-79
2022/01/16 07:56:25;;;;;;;29.20;20.83;;;-2.70;99.90;;;;;;5055563;28;20825;-78
2022/01/16 07:58:54;;;;;;;28.77;22.37;;;-2.50;99.90;;;;;;5066823;28;20499;-79
2022/01/16 08:01:21;;;;;;;22.93;19.83;;;-2.30;99.90;;;;;;5073347;28;20510;-79
2022/01/16 08:03:48;;;;;;;24.50;21.17;;;-2.10;99.90;;;;;;5074076;28;20432;-78
2022/01/16 08:06:16;;;;;;;22.13;19.77;;;-1.80;99.90;;;;;;5056373;28;20468;-78
2022/01/16 08:08:43;;;;;;;24.60;21.67;;;-1.60;99.90;;;;;;5071481;28;20482;-79
2022/01/16 08:11:10;;;;;;;27.03;24.13;;;-1.30;99.90;;;;;;5074541;28;20524;-78
2022/01/16 08:13:37;;;;;;;24.17;21.27;;;-1.00;99.90;;;;;;5065850;28;20437;-78
2022/01/16 08:16:07;;;;;;;25.70;20.93;;;-0.80;99.90;;;;;;5080682;28;20511;-80
2022/01/16 08:18:34;;;;;;;26.00;21.27;;;-0.50;99.90;;;;;;5075231;28;20445;-79
2022/01/16 08:21:01;;;;;;;29.67;22.63;;;-0.30;99.90;;;;;;5075676;28;20886;-81
2022/01/16 08:23:28;;;;;;;27.80;24.50;;;-0.10;99.90;;;;;;5057030;28;20457;-76
2022/01/16 08:25:55;;;;;;;26.90;24.30;;;0.10;99.90;;;;;;5059209;28;20984;-76
2022/01/16 08:28:22;;;;;;;30.93;26.90;;;0.40;99.90;;;;;;5060040;28;20472;-77
2022/01/16 08:30:49;;;;;;;32.13;28.70;;;0.70;99.90;;;;;;5076623;28;20467;-78
2022/01/16 08:33:17;;;;;;;31.93;28.50;;;1.00;99.90;;;;;;5075165;28;20856;-76
2022/01/16 08:35:44;;;;;;;32.97;29.53;;;1.30;99.90;;;;;;5075149;28;20421;-76
2022/01/16 08:38:11;;;;;;;32.20;28.80;;;1.60;99.90;;;;;;5062364;28;20430;-77
2022/01/16 08:40:38;;;;;;;29.97;26.60;;;1.80;99.90;;;;;;5049852;28;20453;-77
2022/01/16 08:43:08;;;;;;;26.90;23.73;;;2.10;99.90;;;;;;5049241;28;20456;-79
2022/01/16 08:45:36;;;;;;;30.37;27.27;;;2.40;99.90;;;;;;5057903;28;20519;-82
2022/01/16 08:48:04;;;;;;;27.60;24.27;;;2.60;99.90;;;;;;5061905;28;20468;-79
2022/01/16 08:50:33;;;;;;;27.83;24.10;;;2.60;99.90;;;;;;5069428;28;20578;-77
2022/01/16 08:53:00;;;;;;;28.30;25.50;;;2.40;99.90;;;;;;5074457;28;20436;-77
2022/01/16 08:55:27;;;;;;;27.70;24.77;;;2.50;99.90;;;;;;5068161;28;20429;-77
2022/01/16 08:57:58;;;;;;;28.63;25.80;;;2.70;99.90;;;;;;5068052;28;20432;-77
2022/01/16 09:00:25;;;;;;;28.57;25.77;;;2.70;99.90;;;;;;5053750;28;20973;-77
2022/01/16 09:02:52;;;;;;;26.40;23.93;;;2.90;99.90;;;;;;5076090;28;20202;-78
2022/01/16 09:05:19;;;;;;;27.97;25.20;;;2.90;99.90;;;;;;5079174;28;20204;-78
2022/01/16 09:07:47;;;;;;;27.83;24.93;;;2.90;99.90;;;;;;5076379;28;20240;-81
2022/01/16 09:10:14;;;;;;;26.77;24.17;;;3.00;99.90;;;;;;5080017;28;20660;-78
2022/01/16 09:12:44;;;;;;;25.73;23.23;;;3.00;99.90;;;;;;5063864;28;20465;-79
2022/01/16 09:15:13;;;;;;;26.27;23.67;;;3.00;99.90;;;;;;5069055;28;20617;-78
2022/01/16 09:17:40;;;;;;;26.23;23.50;;;3.10;99.90;;;;;;5063811;28;20187;-78
2022/01/16 09:20:13;;;;;;;26.80;22.77;;;3.00;99.90;;;;;;5071121;28;20194;-78
2022/01/16 09:22:40;;;;;;;26.57;23.97;;;3.00;99.90;;;;;;5068035;28;20645;-79
2022/01/16 09:25:10;;;;;;;25.77;23.17;;;2.90;99.90;;;;;;5089329;28;20191;-79
2022/01/16 09:27:37;;;;;;;25.50;22.93;;;2.80;99.90;;;;;;5065850;28;20865;-80
2022/01/16 09:30:06;;;;;;;25.37;22.73;;;2.80;99.90;;;;;;5079231;28;20674;-78
2022/01/16 09:32:36;;;;;;;23.77;21.50;;;2.80;99.90;;;;;;5080522;28;20262;-80
2022/01/16 09:35:05;;;;;;;24.77;22.33;;;2.80;99.90;;;;;;5058246;28;20237;-78
2022/01/16 09:37:32;;;;;;;25.73;23.13;;;2.90;99.90;;;;;;5077912;28;20192;-78
2022/01/16 09:40:01;;;;;;;25.60;23.00;;;3.00;99.90;;;;;;5083192;28;20449;-79
2022/01/16 09:42:30;;;;;;;24.43;21.97;;;3.10;99.90;;;;;;5084020;28;20468;-79
2022/01/16 09:44:57;;;;;;;25.43;22.77;;;3.20;99.90;;;;;;5081849;28;20452;-79
2022/01/16 09:47:25;;;;;;;24.67;22.17;;;3.30;99.90;;;;;;5067927;28;20900;-78
2022/01/16 09:49:52;;;;;;;25.77;22.20;;;3.40;99.90;;;;;;5075416;28;20436;-76
2022/01/16 09:52:19;;;;;;;24.70;22.20;;;3.50;99.90;;;;;;5072216;28;20230;-78
2022/01/16 09:54:46;;;;;;;27.27;22.87;;;3.50;99.90;;;;;;5074197;28;20224;-79
2022/01/16 09:57:14;;;;;;;26.67;23.77;;;3.50;99.90;;;;;;5056766;28;20664;-78
2022/01/16 09:59:44;;;;;;;26.03;23.33;;;3.50;99.90;;;;;;5047758;28;20714;-78
2022/01/16 10:02:11;;;;;;;25.30;21.83;;;3.50;99.90;;;;;;5075252;28;20210;-77
2022/01/16 10:04:41;;;;;;;25.43;22.73;;;3.50;99.90;;;;;;5075418;28;20186;-78
2022/01/16 10:07:11;;;;;;;24.50;21.97;;;3.50;99.90;;;;;;5071751;28;20194;-78
2022/01/16 10:09:40;;;;;;;25.07;21.63;;;3.50;99.90;;;;;;5066206;28;20193;-77
2022/01/16 10:12:16;;;;;;;24.30;21.80;;;3.50;99.90;;;;;;5066930;28;21004;-78
2022/01/16 10:14:47;;;;;;;25.07;22.03;;;3.50;99.90;;;;;;5056702;28;20194;-78
2022/01/16 10:17:16;;;;;;;25.47;21.97;;;3.50;99.90;;;;;;5073440;28;20194;-79
2022/01/16 10:19:43;;;;;;;24.87;22.27;;;3.50;99.90;;;;;;5044831;28;20200;-78
2022/01/16 10:22:12;;;;;;;25.13;22.20;;;3.50;99.90;;;;;;5072118;28;20214;-77
2022/01/16 10:24:40;;;;;;;23.00;20.60;;;3.50;99.90;;;;;;5070009;28;20448;-78
2022/01/16 10:27:21;;;;;;;25.33;22.73;;;3.60;99.90;;;;;;5050804;28;20445;-77
2022/01/16 10:29:52;;;;;;;24.20;21.40;;;3.60;99.90;;;;;;5067870;28;20190;-79
2022/01/16 10:32:21;;;;;;;24.23;21.73;;;3.60;99.90;;;;;;5074228;28;20222;-78
2022/01/16 10:34:50;;;;;;;24.07;21.53;;;3.60;99.90;;;;;;5066337;28;20273;-77
2022/01/16 10:37:23;;;;;;;29.27;22.97;;;3.70;99.90;;;;;;5063462;28;20252;-79
2022/01/16 10:39:56;;;;;;;24.43;21.70;;;3.70;99.90;;;;;;5065547;28;20248;-76
2022/01/16 10:42:23;;;;;;;26.80;23.03;;;3.70;99.90;;;;;;5059284;28;20310;-78
2022/01/16 10:45:03;;;;;;;27.40;23.67;;;3.70;99.90;;;;;;5045575;28;20520;-78
2022/01/16 10:47:34;;;;;;;31.97;24.20;;;3.70;99.90;;;;;;5065497;28;20639;-78
2022/01/16 10:50:10;;;;;;;25.80;23.10;;;3.70;99.90;;;;;;5064426;28;20202;-77
2022/01/16 10:52:55;;;;;;;25.67;22.80;;;3.70;99.90;;;;;;5067440;28;20212;-77
2022/01/16 10:55:25;;;;;;;25.50;22.20;;;3.80;99.90;;;;;;5063186;28;20437;-77
2022/01/16 10:58:01;;;;;;;25.40;22.67;;;3.80;99.90;;;;;;5063636;28;20191;-78
2022/01/16 11:00:29;;;;;;;24.67;21.77;;;3.80;99.90;;;;;;5044487;28;20567;-79
2022/01/16 11:02:59;;;;;;;25.00;22.30;;;3.90;99.90;;;;;;5064036;28;20197;-79
2022/01/16 11:05:28;;;;;;;28.07;24.97;;;3.90;99.90;;;;;;5040897;28;20294;-78
2022/01/16 11:08:00;;;;;;;26.33;23.53;;;3.90;99.90;;;;;;5063491;28;20207;-78
2022/01/16 11:10:29;;;;;;;27.80;23.97;;;3.90;99.90;;;;;;5045384;28;20239;-76
2022/01/16 11:12:59;;;;;;;25.77;23.07;;;3.90;99.90;;;;;;5055740;28;20195;-78
2022/01/16 11:15:26;;;;;;;26.77;23.87;;;4.00;99.90;;;;;;5051958;28;20210;-79
2022/01/16 11:17:55;;;;;;;29.07;24.80;;;4.00;99.90;;;;;;5073190;28;20441;-80
2022/01/16 11:20:33;;;;;;;30.63;24.83;;;4.00;99.90;;;;;;5070530;28;20973;-81
2022/01/16 11:23:05;;;;;;;26.13;23.40;;;4.00;99.90;;;;;;5075713;28;20994;-80
2022/01/16 11:25:34;;;;;;;26.33;23.37;;;4.10;99.90;;;;;;5066279;28;20244;-82
2022/01/16 11:28:07;;;;;;;27.17;22.67;;;4.10;99.90;;;;;;5076019;28;20203;-81
2022/01/16 11:33:20;;;;;;;26.10;23.13;;;4.20;99.90;;;;;;5050839;28;20755;-78
2022/01/16 11:35:50;;;;;;;25.57;22.90;;;4.20;99.90;;;;;;5054294;28;20182;-78
2022/01/16 11:38:20;;;;;;;25.60;22.57;;;4.30;99.90;;;;;;5052125;28;20199;-78
2022/01/16 11:40:49;;;;;;;25.13;22.43;;;4.40;99.90;;;;;;5056493;28;20199;-79
2022/01/16 11:43:18;;;;;;;26.13;23.40;;;4.60;99.90;;;;;;5056720;28;20624;-79
2022/01/16 11:45:51;;;;;;;27.00;23.30;;;4.90;99.90;;;;;;5060444;28;20618;-79
2022/01/16 11:48:41;;;;;;;26.17;23.00;;;5.10;99.90;;;;;;5060804;28;20203;-79
2022/01/16 11:51:51;;;;;;;25.80;23.00;;;5.40;99.90;;;;;;5063335;28;20215;-79
2022/01/16 11:54:23;;;;;;;24.57;21.97;;;5.40;99.90;;;;;;5066727;28;20663;-79
2022/01/16 11:56:53;;;;;;;25.40;22.90;;;5.40;99.90;;;;;;5035817;28;20206;-78
2022/01/16 11:59:21;;;;;;;24.50;22.03;;;5.50;99.90;;;;;;5065945;28;20264;-80
2022/01/16 12:01:51;;;;;;;23.37;21.07;;;5.60;99.90;;;;;;5040593;28;20223;-80
2022/01/16 12:04:55;;;;;;;24.33;21.73;;;5.60;99.90;;;;;;5036168;28;20203;-80
2022/01/16 12:07:51;;;;;;;25.13;22.43;;;5.70;99.90;;;;;;5006594;28;20672;-80
2022/01/16 12:10:54;;;;;;;25.47;21.93;;;5.80;99.90;;;;;;5059540;28;20274;-79
2022/01/16 12:13:52;;;;;;;24.17;21.47;;;5.90;99.90;;;;;;5054843;28;20199;-80
2022/01/16 12:16:47;;;;;;;25.40;21.83;;;6.00;99.90;;;;;;5034569;28;20199;-76
2022/01/16 12:19:44;;;;;;;24.47;21.80;;;5.90;99.90;;;;;;5053028;28;20275;-77
2022/01/16 12:22:14;;;;;;;22.87;20.47;;;5.90;99.90;;;;;;5038017;28;20220;-76
2022/01/16 12:24:43;;;;;;;23.73;21.17;;;6.00;99.90;;;;;;5058302;28;20195;-81
2022/01/16 12:39:15;;;;;;;24.07;21.67;;;6.00;99.90;;;;;;4957783;28;20213;-81
2022/01/16 12:41:46;;;;;;;23.10;20.67;;;6.10;99.90;;;;;;4961747;28;20213;-80
2022/01/16 12:44:14;;;;;;;24.53;21.43;;;6.10;99.90;;;;;;4998210;28;20206;-77
2022/01/16 12:46:43;;;;;;;23.50;21.07;;;6.10;99.90;;;;;;4999489;28;20200;-79
2022/01/16 12:49:15;;;;;;;24.23;20.87;;;6.10;99.90;;;;;;5056855;28;20495;-78
2022/01/16 12:51:44;;;;;;;23.33;20.37;;;6.20;99.90;;;;;;5054345;28;20212;-78
2022/01/16 12:54:16;;;;;;;22.90;20.60;;;6.30;99.90;;;;;;5058650;28;20205;-79
2022/01/16 12:56:46;;;;;;;22.10;19.90;;;6.40;99.90;;;;;;5035099;28;20246;-77
2022/01/16 12:59:17;;;;;;;21.63;19.57;;;6.40;99.90;;;;;;5048477;28;20634;-79
2022/01/16 13:01:49;;;;;;;22.63;20.27;;;6.30;99.90;;;;;;5054044;28;20284;-79
2022/01/16 13:04:26;;;;;;;22.97;20.57;;;6.10;99.90;;;;;;5055653;28;20257;-79
2022/01/16 13:06:53;;;;;;;23.30;20.93;;;6.10;99.90;;;;;;5038634;28;20409;-75
2022/01/16 13:09:23;;;;;;;23.50;21.20;;;5.90;99.90;;;;;;5057396;28;20292;-78
2022/01/16 13:11:55;;;;;;;27.80;24.90;;;5.60;99.90;;;;;;5038152;28;20323;-78
2022/01/16 13:14:25;;;;;;;28.47;25.10;;;5.20;99.90;;;;;;5038220;28;20206;-79
2022/01/16 13:16:54;;;;;;;26.73;23.83;;;4.90;99.90;;;;;;5046513;28;20210;-79
2022/01/16 13:19:49;;;;;;;27.63;24.50;;;4.60;99.90;;;;;;5042789;28;20199;-79
2022/01/16 13:22:19;;;;;;;25.67;22.87;;;4.50;99.90;;;;;;5061537;28;20222;-77
2022/01/16 13:28:33;;;;;;;29.48;26.58;;;4.30;99.90;;;;;;5056041;28;20439;-77
2022/01/16 13:31:00;;;;;;;29.35;26.50;;;4.20;99.90;;;;;;5060837;28;20427;-76